Latest Coastal Weather Observations for Smithton

IDT60701

Issued at 3:03 pm EDT Thursday 8 December 2016 (issued every 10 minutes, with the page automatically refreshed every 10 minutes)

About coastal observations | Map of coastal stations | Coastal observations for TAS | Marine services | Other Formats
Station Details ID: 091292 Name: SMITHTON AERODROME Lat: -40.83 Lon: 145.08 Height: 7.5 m
Data from the previous 72 hours. | See also: Recent months at Smithton
Date/Time
EDT
Temp
°C
Wind Pressure Rain since
9am
mm
Weather Cloud Vis
km
Sea
Height
m
Swell
Dir  Spd
kts
Gust
kts
hPa Trend Height
m
Period
s
Dir
08/03:00pm 16.6 NW 27 36 988.2 - 0.2 - - - - - - -
08/02:31pm 16.3 NW 29 39 989.0 - 0.2 - - - - - - -
08/02:30pm 16.3 NW 30 39 988.7 - 0.2 - - - - - - -
08/02:00pm 17.3 NW 29 45 989.2 - 0.2 - - - - - - -
08/01:30pm 15.7 NNW 27 41 990.0 - 0.2 - - - - - - -
08/01:25pm 15.9 NNW 23 37 990.0 - 0.2 - - - - - - -
08/01:24pm 16.1 NNW 20 37 990.2 - 0.2 - - - - - - -
08/01:00pm 16.7 NW 33 45 990.3 - 0.2 - - - - - - -
08/12:30pm 17.3 NW 27 37 990.9 - 0.2 - - - - - - -
08/12:04pm 17.4 NW 25 35 991.1 - 0.2 - - - - - - -
08/12:00pm 17.8 NW 26 35 991.0 - 0.2 - - - - - - -
08/11:30am 17.5 NW 25 35 991.5 - 0.2 - - - - - - -
08/11:13am 16.8 WNW 26 36 991.2 - 0.2 - - - - - - -
08/11:00am 15.9 NW 27 35 991.3 - 0.2 - - - - - - -
08/10:50am 15.5 WNW 31 37 991.2 - 0.2 - - - - - - -
08/10:38am 16.5 NNW 20 30 990.9 - 0.2 - - - - - - -
08/10:30am 16.8 NNW 21 29 990.8 - 0.2 - - - - - - -
08/10:00am 16.5 N 21 27 990.8 - 0.2 - - - - - - -
08/09:32am 16.3 N 20 33 990.9 - 0.2 - - - - - - -
08/09:30am 16.3 N 19 28 991.1 - 0.2 - - - - - - -
08/09:12am 16.2 N 16 26 991.3 - 0.0 - - - - - - -
08/09:00am 16.0 N 18 25 991.4 - 11.6 - - - - - - -
08/08:59am 16.0 N 18 24 991.6 - 11.6 - - - - - - -
08/08:40am 15.4 NE 20 27 992.0 - 11.6 - - - - - - -
08/08:30am 15.1 ENE 19 26 991.9 - 10.8 - - - - - - -
08/08:00am 14.9 E 21 27 993.0 - 9.2 - - - - - - -
08/07:32am 14.7 ENE 22 32 994.3 - 8.2 - - - - - - -
08/07:30am 14.7 ENE 23 32 994.2 - 8.2 - - - - - - -
08/07:00am 14.7 ENE 24 32 994.9 - 7.6 - - - - - - -
08/06:43am 14.6 ENE 20 30 995.8 - 7.2 - - - - - - -
08/06:30am 14.3 ENE 21 29 996.1 - 6.2 - - - - - - -
08/06:00am 13.9 E 21 28 996.9 - 3.2 - - - - - - -
08/05:30am 13.9 ENE 22 33 997.5 - 1.6 - - - - - - -
08/05:00am 13.5 ENE 21 31 997.1 - 0.8 - - - - - - -
08/04:32am 13.4 ENE 22 33 997.5 - 0.6 - - - - - - -
08/04:30am 13.4 ENE 22 31 997.6 - 0.6 - - - - - - -
08/04:11am 13.5 E 20 32 998.3 - 0.4 - - - - - - -
08/04:00am 13.8 E 17 25 999.5 - 0.2 - - - - - - -
08/03:43am 14.3 E 22 33 999.2 - 0.0 - - - - - - -
08/03:30am 14.1 ENE 22 30 999.3 - 0.0 - - - - - - -
08/03:00am 14.0 ENE 20 27 1000.3 - 0.0 - - - - - - -
08/02:30am 14.0 ENE 18 25 1001.6 - 0.0 - - - - - - -
08/02:00am 14.2 ENE 18 25 1001.5 - 0.0 - - - - - - -
08/01:56am 14.2 ENE 18 26 1001.8 - 0.0 - - - - - - -
08/01:30am 14.6 NE 17 23 1003.8 - 0.0 - - - - - - -
08/01:00am 14.6 NE 18 25 1004.2 - 0.0 - - - - - - -
08/12:30am 14.3 NE 16 22 1005.0 - 0.0 - - - - - - -
08/12:00am 13.8 ENE 11 16 1005.7 - 0.0 - - - - - - -
 
Date/Time
EDT
Temp
°C
Wind Pressure Rain since
9am
mm
Weather Cloud Vis
km
Sea
Height
m
Swell
Dir  Spd
kts
Gust
kts
hPa Trend Height
m
Period
s
Dir
07/11:30pm 13.6 ENE 12 17 1005.9 - 0.0 - - - - - - -
07/11:00pm 12.9 ENE 9 12 1006.6 - 0.0 - - - - - - -
07/10:30pm 12.8 ENE 8 11 1007.3 - 0.0 - - - - - - -
07/10:00pm 12.1 E 7 9 1007.6 - 0.0 - - - - - - -
07/09:30pm 13.0 ENE 7 9 1007.8 - 0.0 - - - - - - -
07/09:00pm 13.7 NE 8 10 1008.3 - 0.0 - - - - - - -
07/08:30pm 14.3 NNE 7 10 1008.8 - 0.0 - - - - - - -
07/08:00pm 15.5 NNE 7 9 1009.2 - 0.0 - - - - - - -
07/07:30pm 16.1 N 8 11 1009.9 - 0.0 - - - - - - -
07/07:00pm 16.8 N 9 12 1010.1 - 0.0 - - - - - - -
07/06:30pm 17.4 N 8 12 1010.5 - 0.0 - - - - - - -
07/06:00pm 18.2 NNW 10 11 1010.8 - 0.0 - - - - - - -
07/05:30pm 17.4 NNW 10 14 1011.1 - 0.0 - - - - - - -
07/05:00pm 17.7 NNW 12 16 1011.5 - 0.0 - - - - - - -
07/04:30pm 17.9 NNW 13 17 1011.9 - 0.0 - - - - - - -
07/04:00pm 18.1 NNW 14 18 1012.0 - 0.0 - - - - - - -
07/03:30pm 18.7 NW 13 17 1012.2 - 0.0 - - - - - - -
07/03:00pm 18.8 NW 13 18 1012.2 - 0.0 - - - - - - -
07/02:30pm 19.9 NW 14 19 1012.4 - 0.0 - - - - - - -
07/02:00pm 18.1 NW 15 19 1012.7 - 0.0 - - - - - - -
07/01:30pm 18.3 NW 15 20 1012.7 - 0.0 - - - - - - -
07/01:00pm 17.3 WNW 12 17 1013.0 - 0.0 - - - - - - -
07/12:30pm 17.0 NW 13 17 1013.1 - 0.0 - - - - - - -
07/12:00pm 18.8 NW 12 16 1013.3 - 0.0 - - - - - - -
07/11:30am 17.0 NW 11 14 1013.5 - 0.0 - - - - - - -
07/11:00am 16.4 NW 11 14 1013.5 - 0.0 - - - - - - -
07/10:30am 15.7 WNW 10 14 1013.6 - 0.0 - - - - - - -
07/10:00am 16.5 NW 10 14 1013.6 - 0.0 - - - - - - -
07/09:30am 16.0 WNW 9 12 1013.8 - 0.0 - - - - - - -
07/09:00am 16.4 WNW 9 13 1013.9 - 0.0 - - - - - - -
07/08:30am 14.8 WNW 8 10 1013.9 - 0.0 - - - - - - -
07/08:00am 13.2 W 4 6 1013.8 - 0.0 - - - - - - -
07/07:30am 11.5 CALM 0 0 1013.7 - 0.0 - - - - - - -
07/07:00am 8.8 CALM 0 0 1013.7 - 0.0 - - - - - - -
07/06:30am 7.3 CALM 0 0 1013.5 - 0.0 - - - - - - -
07/06:00am 6.2 CALM 0 0 1013.2 - 0.0 - - - - - - -
07/05:30am 6.0 SSW 3 5 1013.0 - 0.0 - - - - - - -
07/05:00am 6.1 CALM 0 0 1012.7 - 0.0 - - - - - - -
07/04:30am 6.3 SSW 1 3 1012.6 - 0.0 - - - - - - -
07/04:00am 7.7 SSW 3 5 1012.5 - 0.0 - - - - - - -
07/03:30am 7.4 SSW 3 4 1012.7 - 0.0 - - - - - - -
07/03:00am 8.0 SSW 3 4 1012.7 - 0.0 - - - - - - -
07/02:30am 8.5 W 2 4 1012.9 - 0.0 - - - - - - -
07/02:00am 8.7 CALM 0 0 1013.2 - 0.0 - - - - - - -
07/01:30am 9.6 CALM 0 0 1013.5 - 0.0 - - - - - - -
07/01:00am 10.3 W 6 7 1013.6 - 0.0 - - - - - - -
07/12:30am 11.0 W 8 9 1013.6 - 0.0 - - - - - - -
07/12:00am 11.2 W 8 10 1013.7 - 0.0 - - - - - - -
 
Date/Time
EDT
Temp
°C
Wind Pressure Rain since
9am
mm
Weather Cloud Vis
km
Sea
Height
m
Swell
Dir  Spd
kts
Gust
kts
hPa Trend Height
m
Period
s
Dir
06/11:30pm 12.1 NW 9 12 1013.8 - 0.0 - - - - - - -
06/11:00pm 12.5 WNW 5 6 1014.0 - 0.0 - - - - - - -
06/10:30pm 12.5 WNW 6 7 1014.2 - 0.0 - - - - - - -
06/10:00pm 12.3 WNW 5 6 1014.2 - 0.0 - - - - - - -
06/09:30pm 11.8 W 7 8 1013.9 - 0.0 - - - - - - -
06/09:00pm 12.8 W 9 14 1013.8 - 0.0 - - - - - - -
06/08:30pm 13.8 W 11 17 1013.5 - 0.0 - - - - - - -
06/08:00pm 13.9 W 10 13 1013.3 - 0.0 - - - - - - -
06/07:30pm 15.1 W 12 16 1012.9 - 0.0 - - - - - - -
06/07:00pm 15.8 W 12 16 1012.7 - 0.0 - - - - - - -
06/06:30pm 15.7 W 15 21 1012.4 - 0.0 - - - - - - -
06/06:00pm 17.1 W 13 18 1012.0 - 0.0 - - - - - - -
06/05:30pm 16.3 W 15 20 1012.0 - 0.0 - - - - - - -
06/05:00pm 17.3 W 13 19 1012.1 - 0.0 - - - - - - -
06/04:30pm 16.5 W 15 19 1012.1 - 0.0 - - - - - - -
06/04:00pm 16.9 WSW 17 22 1012.1 - 0.0 - - - - - - -
06/03:30pm 16.9 WSW 18 25 1012.0 - 0.0 - - - - - - -
06/03:00pm 15.6 W 18 23 1012.0 - 0.0 - - - - - - -
06/02:30pm 15.7 W 17 21 1012.1 - 0.0 - - - - - - -
06/02:00pm 17.2 W 16 23 1012.1 - 0.0 - - - - - - -
06/01:30pm 17.1 WSW 14 21 1012.3 - 0.0 - - - - - - -
06/01:00pm 16.2 WSW 15 21 1012.2 - 0.0 - - - - - - -
06/12:30pm 15.3 SW 15 20 1012.4 - 0.0 - - - - - - -
06/12:00pm 15.3 WSW 17 23 1012.4 - 0.0 - - - - - - -
06/11:30am 16.6 WSW 15 21 1012.5 - 0.0 - - - - - - -
06/11:00am 14.8 WSW 13 19 1012.3 - 0.0 - - - - - - -
06/10:30am 15.4 WSW 13 16 1012.4 - 0.0 - - - - - - -
06/10:00am 14.8 WSW 12 19 1012.3 - 0.0 - - - - - - -
06/09:30am 14.6 SW 11 14 1012.4 - 0.0 - - - - - - -
06/09:00am 13.7 WSW 9 13 1012.5 - 0.0 - - - - - - -
06/08:30am 13.3 WSW 8 11 1012.4 - 0.0 - - - - - - -
06/08:00am 12.3 WSW 6 8 1012.1 - 0.0 - - - - - - -
06/07:30am 11.6 W 9 11 1012.5 - 0.0 - - - - - - -
06/07:00am 10.8 W 6 7 1012.6 - 0.0 - - - - - - -
06/06:30am 9.6 SW 5 8 1012.5 - 0.0 - - - - - - -
06/06:00am 8.9 SSW 6 7 1012.4 - 0.0 - - - - - - -
06/05:30am 9.1 SSW 7 8 1012.0 - 0.0 - - - - - - -
06/05:00am 9.5 WSW 8 10 1012.1 - 0.0 - - - - - - -
06/04:30am 8.6 SW 4 6 1011.7 - 0.0 - - - - - - -
06/04:00am 8.2 WSW 5 6 1011.3 - 0.0 - - - - - - -
06/03:30am 7.0 SSW 4 6 1011.1 - 0.0 - - - - - - -
06/03:00am 5.5 SSW 2 4 1011.6 - 0.0 - - - - - - -
06/02:30am 6.7 SSW 5 7 1011.9 - 0.0 - - - - - - -
06/02:00am 5.8 SW 5 7 1012.3 - 0.0 - - - - - - -
06/01:30am 6.0 SSW 5 6 1012.3 - 0.0 - - - - - - -
06/01:00am 6.5 WSW 4 5 1012.5 - 0.0 - - - - - - -
06/12:30am 7.3 WSW 4 5 1012.5 - 0.0 - - - - - - -
06/12:00am 8.0 WSW 4 5 1012.6 - 0.0 - - - - - - -
 
Date/Time
EDT
Temp
°C
Wind Pressure Rain since
9am
mm
Weather Cloud Vis
km
Sea
Height
m
Swell
Dir  Spd
kts
Gust
kts
hPa Trend Height
m
Period
s
Dir
05/11:30pm 7.8 WSW 5 6 1012.8 - 0.0 - - - - - - -
05/11:00pm 8.3 W 7 8 1013.7 - 0.0 - - - - - - -
05/10:30pm 9.1 W 8 9 1013.8 - 0.0 - - - - - - -
05/10:00pm 10.3 W 8 9 1013.8 - 0.0 - - - - - - -
05/09:30pm 10.7 WSW 7 7 1013.2 - 0.0 - - - - - - -
05/09:00pm 9.8 WSW 6 7 1012.7 - 0.0 - - - - - - -
05/08:30pm 11.7 SW 8 11 1012.7 - 0.0 - - - - - - -
05/08:00pm 13.1 SW 12 19 1012.5 - 0.0 - - - - - - -
05/07:30pm 14.1 SW 15 19 1012.6 - 0.0 - - - - - - -
05/07:00pm 14.8 SW 17 21 1012.1 - 0.0 - - - - - - -
05/06:30pm 15.3 SW 16 21 1011.0 - 0.0 - - - - - - -
05/06:00pm 15.7 SW 17 22 1011.3 - 0.0 - - - - - - -
05/05:30pm 16.2 SW 17 23 1011.4 - 0.0 - - - - - - -
05/05:00pm 16.7 WSW 18 23 1011.2 - 0.0 - - - - - - -
05/04:30pm 16.0 WSW 19 24 1011.1 - 0.0 - - - - - - -
05/04:00pm 16.1 SW 17 27 1010.5 - 0.0 - - - - - - -
05/03:30pm 17.5 SW 17 21 1010.3 - 0.0 - - - - - - -

Other Formats:

Comma delimited format used in spreadsheet applications
http://www.bom.gov.au/fwo/IDT60701/IDT60701.94953.axf

JavaScript Object Notation format (JSON) in row-major order
http://www.bom.gov.au/fwo/IDT60701/IDT60701.94953.json